createdAt,value
2019-02-10T00:00:41.838Z,5.80
2019-02-10T00:03:11.489Z,5.90
2019-02-10T00:06:24.627Z,5.80
2019-02-10T00:08:50.200Z,5.80
2019-02-10T00:11:22.696Z,5.80
2019-02-10T00:13:52.524Z,5.90
2019-02-10T00:16:28.605Z,5.80
2019-02-10T00:19:05.460Z,5.80
2019-02-10T00:21:34.565Z,5.80
2019-02-10T00:26:44.175Z,5.60
2019-02-10T00:29:16.820Z,5.60
2019-02-10T00:31:50.521Z,5.50
2019-02-10T00:34:48.734Z,5.40
2019-02-10T00:40:48.474Z,5.30
2019-02-10T00:43:18.897Z,5.30
2019-02-10T00:46:24.447Z,5.30
2019-02-10T00:49:28.974Z,5.40
2019-02-10T00:56:14.681Z,5.40
2019-02-10T00:58:47.368Z,5.50
2019-02-10T01:01:25.815Z,5.50
2019-02-10T01:12:06.988Z,5.60
2019-02-10T01:14:40.460Z,5.60
2019-02-10T01:17:13.402Z,5.70
2019-02-10T01:20:20.786Z,5.70
2019-02-10T01:22:51.638Z,5.80
2019-02-10T01:25:45.051Z,5.60
2019-02-10T01:28:23.720Z,5.60
2019-02-10T01:31:53.041Z,5.70
2019-02-10T01:34:45.782Z,5.80
2019-02-10T01:40:47.153Z,5.40
2019-02-10T01:43:34.886Z,5.40
2019-02-10T01:49:10.556Z,5.20
2019-02-10T01:58:27.008Z,5.10
2019-02-10T02:01:49.359Z,5.10
2019-02-10T02:04:19.162Z,5.20
2019-02-10T02:07:29.700Z,5.00
2019-02-10T02:10:01.080Z,4.90
2019-02-10T02:26:34.270Z,4.50
2019-02-10T02:29:19.162Z,4.70
2019-02-10T02:32:43.526Z,4.60
2019-02-10T02:35:15.694Z,4.50
2019-02-10T02:38:29.335Z,4.50
2019-02-10T02:53:15.604Z,5.10
2019-02-10T02:56:24.404Z,5.00
2019-02-10T02:59:33.055Z,4.90
2019-02-10T03:12:04.590Z,5.10
2019-02-10T03:14:33.638Z,5.20
2019-02-10T03:17:03.049Z,5.30
2019-02-10T03:19:32.357Z,5.40
2019-02-10T03:22:03.475Z,5.40
2019-02-10T03:24:37.397Z,5.40
2019-02-10T03:34:57.406Z,5.10
2019-02-10T03:37:54.598Z,5.10
2019-02-10T04:01:26.191Z,5.10
2019-02-10T04:04:42.700Z,5.00
2019-02-10T04:08:07.706Z,5.10
2019-02-10T04:11:31.121Z,5.00
2019-02-10T04:14:18.753Z,5.10
2019-02-10T04:17:13.718Z,5.10
2019-02-10T04:26:08.254Z,5.10
2019-02-10T04:28:40.837Z,5.00
2019-02-10T04:31:09.788Z,5.00
2019-02-10T04:33:39.051Z,5.10
2019-02-10T04:36:11.013Z,5.00
2019-02-10T04:52:47.454Z,5.10
2019-02-10T04:55:26.619Z,5.20
2019-02-10T05:25:09.427Z,5.10
2019-02-10T05:27:58.516Z,5.10
2019-02-10T05:31:00.557Z,5.10
2019-02-10T05:50:14.054Z,5.10
2019-02-10T06:10:22.780Z,5.20
2019-02-10T06:13:35.572Z,5.20
2019-02-10T06:17:00.309Z,5.30
2019-02-10T06:20:41.726Z,5.30
2019-02-10T08:21:31.960Z,6.30
2019-02-10T08:36:12.502Z,6.50
2019-02-10T19:35:32.396Z,5.50
2019-02-10T20:10:07.175Z,5.30
2019-02-10T20:12:44.242Z,5.30
2019-02-10T20:15:58.841Z,5.30
2019-02-10T20:19:05.230Z,5.30
2019-02-10T20:22:21.579Z,5.30
2019-02-10T20:25:48.534Z,5.20
2019-02-10T20:29:32.384Z,5.20
2019-02-10T20:32:33.527Z,5.20
2019-02-10T20:35:15.936Z,5.10
2019-02-10T20:38:08.788Z,5.10
2019-02-10T20:40:58.286Z,5.10
2019-02-10T20:44:04.582Z,5.10
2019-02-10T20:47:04.091Z,5.00
2019-02-10T20:49:50.649Z,5.00
2019-02-10T20:52:46.160Z,5.00
2019-02-10T20:59:52.936Z,5.00
2019-02-10T21:03:03.401Z,5.00
2019-02-10T21:05:45.129Z,5.10
2019-02-10T21:08:42.621Z,5.10
2019-02-10T21:12:20.724Z,5.10
2019-02-10T21:15:53.346Z,5.10
2019-02-10T21:25:21.216Z,5.10
2019-02-10T21:31:28.091Z,5.10
2019-02-10T22:13:08.573Z,5.20
2019-02-10T22:15:45.312Z,5.10
2019-02-10T22:19:00.687Z,5.00
2019-02-10T22:22:18.835Z,5.00
2019-02-10T22:28:36.693Z,4.90
2019-02-10T22:31:31.498Z,4.90
2019-02-10T22:34:20.659Z,4.90
2019-02-10T22:37:12.099Z,4.90
2019-02-10T22:43:59.723Z,4.90
2019-02-10T22:46:43.331Z,4.90
2019-02-10T22:49:31.768Z,4.90
2019-02-10T22:59:23.457Z,4.80
2019-02-10T23:02:02.389Z,4.70
2019-02-10T23:04:48.416Z,4.70
2019-02-10T23:07:20.276Z,4.60
2019-02-10T23:10:03.994Z,4.60
2019-02-10T23:16:04.174Z,4.50
2019-02-10T23:18:42.708Z,4.40
2019-02-10T23:24:14.867Z,4.30
2019-02-10T23:27:34.139Z,4.30
2019-02-10T23:30:25.350Z,4.20
2019-02-10T23:33:01.339Z,4.20
2019-02-10T23:36:19.107Z,4.10
2019-02-10T23:38:50.397Z,4.20
2019-02-10T23:41:20.888Z,4.10
2019-02-10T23:44:11.014Z,4.10
2019-02-10T23:46:53.946Z,4.00
2019-02-10T23:49:45.865Z,3.90
2019-02-10T23:55:47.207Z,3.80
